sensor_id;sensor_type;location;lat;lon;timestamp;pressure;altitude;pressure_sealevel;temperature;humidity
63285;BME280;49409;55.708;37.522;2023-01-24T00:00:44;101583.59;;;5.28;46.89
63285;BME280;49409;55.708;37.522;2023-01-24T00:03:09;101588.09;;;5.24;46.86
63285;BME280;49409;55.708;37.522;2023-01-24T00:05:40;101587.63;;;5.22;46.77
63285;BME280;49409;55.708;37.522;2023-01-24T00:08:06;101582.34;;;5.17;46.78
63285;BME280;49409;55.708;37.522;2023-01-24T00:10:31;101586.06;;;5.12;46.34
63285;BME280;49409;55.708;37.522;2023-01-24T00:12:57;101584.44;;;5.11;46.72
63285;BME280;49409;55.708;37.522;2023-01-24T00:15:23;101580.59;;;5.12;46.94
63285;BME280;49409;55.708;37.522;2023-01-24T00:17:48;101583.00;;;5.14;47.24
63285;BME280;49409;55.708;37.522;2023-01-24T00:20:14;101583.28;;;5.21;46.94
63285;BME280;49409;55.708;37.522;2023-01-24T00:22:39;101576.25;;;5.20;46.88
63285;BME280;49409;55.708;37.522;2023-01-24T00:25:05;101583.28;;;5.21;47.21
63285;BME280;49409;55.708;37.522;2023-01-24T00:27:30;101579.44;;;5.22;47.16
63285;BME280;49409;55.708;37.522;2023-01-24T00:29:56;101571.25;;;5.22;47.25
63285;BME280;49409;55.708;37.522;2023-01-24T00:32:22;101572.84;;;5.23;46.97
63285;BME280;49409;55.708;37.522;2023-01-24T00:34:47;101573.19;;;5.22;46.72
63285;BME280;49409;55.708;37.522;2023-01-24T00:37:12;101572.38;;;5.21;46.14
63285;BME280;49409;55.708;37.522;2023-01-24T00:39:38;101575.44;;;5.20;46.88
63285;BME280;49409;55.708;37.522;2023-01-24T00:42:03;101572.38;;;5.21;46.66
63285;BME280;49409;55.708;37.522;2023-01-24T00:44:28;101563.06;;;5.22;46.71
63285;BME280;49409;55.708;37.522;2023-01-24T00:46:54;101565.31;;;5.20;46.87
63285;BME280;49409;55.708;37.522;2023-01-24T00:49:19;101570.63;;;5.16;46.75
63285;BME280;49409;55.708;37.522;2023-01-24T00:51:44;101563.59;;;5.15;46.48
63285;BME280;49409;55.708;37.522;2023-01-24T00:54:10;101568.38;;;5.19;47.11
63285;BME280;49409;55.708;37.522;2023-01-24T00:56:35;101568.22;;;5.15;46.77
63285;BME280;49409;55.708;37.522;2023-01-24T00:59:00;101565.34;;;5.11;46.81
63285;BME280;49409;55.708;37.522;2023-01-24T01:01:26;101557.50;;;5.10;47.26
63285;BME280;49409;55.708;37.522;2023-01-24T01:03:57;101558.13;;;5.15;47.15
63285;BME280;49409;55.708;37.522;2023-01-24T01:06:23;101554.41;;;5.20;47.15
63285;BME280;49409;55.708;37.522;2023-01-24T01:08:49;101555.03;;;5.17;46.67
63285;BME280;49409;55.708;37.522;2023-01-24T01:11:15;101545.44;;;5.11;46.52
63285;BME280;49409;55.708;37.522;2023-01-24T01:13:40;101548.16;;;5.11;47.28
63285;BME280;49409;55.708;37.522;2023-01-24T01:16:12;101540.44;;;5.13;47.13
63285;BME280;49409;55.708;37.522;2023-01-24T01:18:38;101536.13;;;5.12;46.85
63285;BME280;49409;55.708;37.522;2023-01-24T01:21:03;101537.72;;;5.13;47.38
63285;BME280;49409;55.708;37.522;2023-01-24T01:23:29;101538.41;;;5.10;47.56
63285;BME280;49409;55.708;37.522;2023-01-24T01:25:58;101541.59;;;5.12;47.45
63285;BME280;49409;55.708;37.522;2023-01-24T01:28:23;101539.97;;;5.11;46.54
63285;BME280;49409;55.708;37.522;2023-01-24T01:30:51;101531.78;;;5.11;47.39
63285;BME280;49409;55.708;37.522;2023-01-24T01:33:16;101536.59;;;5.14;47.11
63285;BME280;49409;55.708;37.522;2023-01-24T01:35:42;101531.16;;;5.14;46.60
63285;BME280;49409;55.708;37.522;2023-01-24T01:38:07;101535.31;;;5.11;47.37
63285;BME280;49409;55.708;37.522;2023-01-24T01:40:32;101537.72;;;5.13;46.79
63285;BME280;49409;55.708;37.522;2023-01-24T01:42:58;101530.69;;;5.12;46.98
63285;BME280;49409;55.708;37.522;2023-01-24T01:45:29;101526.50;;;5.14;47.30
63285;BME280;49409;55.708;37.522;2023-01-24T01:47:55;101528.44;;;5.14;47.23
63285;BME280;49409;55.708;37.522;2023-01-24T01:50:29;101529.53;;;5.13;46.63
63285;BME280;49409;55.708;37.522;2023-01-24T01:52:55;101533.09;;;5.13;47.26
63285;BME280;49409;55.708;37.522;2023-01-24T01:55:22;101532.94;;;5.10;47.36
63285;BME280;49409;55.708;37.522;2023-01-24T01:57:50;101529.06;;;5.11;47.15
63285;BME280;49409;55.708;37.522;2023-01-24T02:00:20;101537.88;;;5.16;46.96
63285;BME280;49409;55.708;37.522;2023-01-24T02:02:48;101538.50;;;5.22;46.52
63285;BME280;49409;55.708;37.522;2023-01-24T02:05:16;101531.25;;;5.26;46.97
63285;BME280;49409;55.708;37.522;2023-01-24T02:08:02;101541.19;;;5.31;46.70
63285;BME280;49409;55.708;37.522;2023-01-24T02:10:30;101537.81;;;5.34;46.89
63285;BME280;49409;55.708;37.522;2023-01-24T02:13:15;101540.88;;;5.32;46.98
63285;BME280;49409;55.708;37.522;2023-01-24T02:15:41;101540.88;;;5.32;46.44
63285;BME280;49409;55.708;37.522;2023-01-24T02:18:27;101540.59;;;5.25;46.56
63285;BME280;49409;55.708;37.522;2023-01-24T02:20:53;101538.97;;;5.24;46.60
63285;BME280;49409;55.708;37.522;2023-01-24T02:28:28;101528.69;;;5.21;47.27
63285;BME280;49409;55.708;37.522;2023-01-24T02:30:56;101539.78;;;5.25;47.43
63285;BME280;49409;55.708;37.522;2023-01-24T02:33:22;101530.16;;;5.27;47.03
63285;BME280;49409;55.708;37.522;2023-01-24T02:35:47;101534.94;;;5.30;46.35
63285;BME280;49409;55.708;37.522;2023-01-24T02:38:20;101533.16;;;5.34;47.12
63285;BME280;49409;55.708;37.522;2023-01-24T02:40:46;101532.19;;;5.30;46.75
63285;BME280;49409;55.708;37.522;2023-01-24T02:43:13;101526.28;;;5.28;46.52
63285;BME280;49409;55.708;37.522;2023-01-24T02:45:39;101530.63;;;5.29;47.17
63285;BME280;49409;55.708;37.522;2023-01-24T02:48:04;101530.63;;;5.29;47.22
63285;BME280;49409;55.708;37.522;2023-01-24T02:50:30;101520.81;;;5.28;47.23
63285;BME280;49409;55.708;37.522;2023-01-24T02:53:19;101522.91;;;5.31;46.69
63285;BME280;49409;55.708;37.522;2023-01-24T02:55:57;101521.28;;;5.30;46.57
63285;BME280;49409;55.708;37.522;2023-01-24T02:58:41;101507.63;;;5.30;46.84
63285;BME280;49409;55.708;37.522;2023-01-24T03:01:07;101501.69;;;5.28;47.12
63285;BME280;49409;55.708;37.522;2023-01-24T03:03:32;101506.38;;;5.28;46.84
63285;BME280;49409;55.708;37.522;2023-01-24T03:05:57;101501.69;;;5.28;47.01
63285;BME280;49409;55.708;37.522;2023-01-24T03:08:23;101495.78;;;5.26;47.25
63285;BME280;49409;55.708;37.522;2023-01-24T03:10:49;101500.13;;;5.27;46.87
63285;BME280;49409;55.708;37.522;2023-01-24T03:13:15;101488.38;;;5.27;47.05
63285;BME280;49409;55.708;37.522;2023-01-24T03:15:59;101494.31;;;5.29;46.47
63285;BME280;49409;55.708;37.522;2023-01-24T03:18:43;101486.13;;;5.29;46.75
63285;BME280;49409;55.708;37.522;2023-01-24T03:21:27;101483.75;;;5.27;46.78
63285;BME280;49409;55.708;37.522;2023-01-24T03:24:11;101486.47;;;5.27;46.69
63285;BME280;49409;55.708;37.522;2023-01-24T03:26:55;101483.44;;;5.20;47.14
63285;BME280;49409;55.708;37.522;2023-01-24T03:29:39;101487.28;;;5.19;46.81
63285;BME280;49409;55.708;37.522;2023-01-24T03:32:23;101476.84;;;5.21;47.06
63285;BME280;49409;55.708;37.522;2023-01-24T03:35:07;101482.31;;;5.21;47.06
63285;BME280;49409;55.708;37.522;2023-01-24T03:37:32;101477.81;;;5.25;47.53
63285;BME280;49409;55.708;37.522;2023-01-24T03:40:16;101478.75;;;5.29;46.94
63285;BME280;49409;55.708;37.522;2023-01-24T03:42:41;101474.41;;;5.28;47.13
63285;BME280;49409;55.708;37.522;2023-01-24T03:45:16;101466.22;;;5.28;46.81
63285;BME280;49409;55.708;37.522;2023-01-24T03:47:46;101473.16;;;5.26;46.96
63285;BME280;49409;55.708;37.522;2023-01-24T03:50:19;101475.72;;;5.22;47.16
63285;BME280;49409;55.708;37.522;2023-01-24T03:53:04;101479.78;;;5.16;47.44
63285;BME280;49409;55.708;37.522;2023-01-24T03:55:29;101473.38;;;5.12;47.53
63285;BME280;49409;55.708;37.522;2023-01-24T03:57:55;101468.38;;;5.14;47.57
63285;BME280;49409;55.708;37.522;2023-01-24T04:00:20;101469.66;;;5.16;47.14
63285;BME280;49409;55.708;37.522;2023-01-24T04:02:45;101468.56;;;5.09;47.01
63285;BME280;49409;55.708;37.522;2023-01-24T04:05:11;101465.69;;;5.05;46.87
63285;BME280;49409;55.708;37.522;2023-01-24T04:07:39;101471.28;;;5.09;47.28
63285;BME280;49409;55.708;37.522;2023-01-24T04:10:05;101474.81;;;5.09;47.19
63285;BME280;49409;55.708;37.522;2023-01-24T04:12:30;101469.69;;;5.08;47.52
63285;BME280;49409;55.708;37.522;2023-01-24T04:14:56;101461.22;;;5.01;47.38
63285;BME280;49409;55.708;37.522;2023-01-24T04:17:21;101456.59;;;4.92;47.47
63285;BME280;49409;55.708;37.522;2023-01-24T04:19:47;101462.53;;;4.86;47.59
63285;BME280;49409;55.708;37.522;2023-01-24T04:22:12;101462.75;;;4.81;47.57
63285;BME280;49409;55.708;37.522;2023-01-24T04:24:40;101459.06;;;4.76;47.63
63285;BME280;49409;55.708;37.522;2023-01-24T04:27:05;101456.66;;;4.75;47.78
63285;BME280;49409;55.708;37.522;2023-01-24T04:29:31;101460.53;;;4.74;47.47
63285;BME280;49409;55.708;37.522;2023-01-24T04:31:56;101457.78;;;4.74;47.50
63285;BME280;49409;55.708;37.522;2023-01-24T04:34:21;101454.56;;;4.72;47.55
63285;BME280;49409;55.708;37.522;2023-01-24T04:36:47;101459.53;;;4.70;48.08
63285;BME280;49409;55.708;37.522;2023-01-24T04:39:12;101459.53;;;4.70;47.39
63285;BME280;49409;55.708;37.522;2023-01-24T04:41:37;101458.59;;;4.66;47.50
63285;BME280;49409;55.708;37.522;2023-01-24T04:44:03;101457.66;;;4.62;48.18
63285;BME280;49409;55.708;37.522;2023-01-24T04:46:28;101458.78;;;4.61;46.97
63285;BME280;49409;55.708;37.522;2023-01-24T04:48:53;101456.06;;;4.61;47.37
63285;BME280;49409;55.708;37.522;2023-01-24T04:51:19;101456.06;;;4.61;47.88
63285;BME280;49409;55.708;37.522;2023-01-24T04:53:44;101456.69;;;4.57;47.79
63285;BME280;49409;55.708;37.522;2023-01-24T04:56:10;101458.47;;;4.62;47.92
63285;BME280;49409;55.708;37.522;2023-01-24T04:58:36;101457.66;;;4.62;47.21
63285;BME280;49409;55.708;37.522;2023-01-24T05:01:02;101455.41;;;4.64;47.16
63285;BME280;49409;55.708;37.522;2023-01-24T05:03:27;101451.56;;;4.65;47.64
63285;BME280;49409;55.708;37.522;2023-01-24T05:05:53;101450.91;;;4.68;47.58
63285;BME280;49409;55.708;37.522;2023-01-24T05:08:18;101449.78;;;4.69;47.35
63285;BME280;49409;55.708;37.522;2023-01-24T05:10:44;101452.50;;;4.69;47.30
63285;BME280;49409;55.708;37.522;2023-01-24T05:13:09;101454.09;;;4.70;46.89
63285;BME280;49409;55.708;37.522;2023-01-24T05:15:35;101450.25;;;4.71;47.43
63285;BME280;49409;55.708;37.522;2023-01-24T05:18:00;101452.00;;;4.75;47.20
63285;BME280;49409;55.708;37.522;2023-01-24T05:20:26;101448.47;;;4.75;47.76
63285;BME280;49409;55.708;37.522;2023-01-24T05:22:51;101447.47;;;4.80;47.29
63285;BME280;49409;55.708;37.522;2023-01-24T05:25:17;101451.50;;;4.82;47.66
63285;BME280;49409;55.708;37.522;2023-01-24T05:27:42;101450.84;;;4.85;47.23
63285;BME280;49409;55.708;37.522;2023-01-24T05:30:08;101446.53;;;4.84;47.64
63285;BME280;49409;55.708;37.522;2023-01-24T05:32:34;101444.28;;;4.86;47.50
63285;BME280;49409;55.708;37.522;2023-01-24T05:34:59;101441.53;;;4.86;47.28
63285;BME280;49409;55.708;37.522;2023-01-24T05:37:25;101441.38;;;4.83;48.03
63285;BME280;49409;55.708;37.522;2023-01-24T05:39:50;101450.38;;;4.83;47.85
63285;BME280;49409;55.708;37.522;2023-01-24T05:42:15;101434.19;;;4.78;47.58
63285;BME280;49409;55.708;37.522;2023-01-24T05:44:40;101444.63;;;4.76;47.71
63285;BME280;49409;55.708;37.522;2023-01-24T05:47:06;101436.44;;;4.76;47.75
63285;BME280;49409;55.708;37.522;2023-01-24T05:49:31;101440.28;;;4.75;47.89
63285;BME280;49409;55.708;37.522;2023-01-24T05:51:56;101440.94;;;4.72;47.84
63285;BME280;49409;55.708;37.522;2023-01-24T05:54:22;101433.25;;;4.74;47.84
63285;BME280;49409;55.708;37.522;2023-01-24T05:56:47;101434.38;;;4.73;47.42
63285;BME280;49409;55.708;37.522;2023-01-24T05:59:12;101423.59;;;4.76;46.90
63285;BME280;49409;55.708;37.522;2023-01-24T06:01:38;101426.50;;;4.80;47.00
63285;BME280;49409;55.708;37.522;2023-01-24T06:04:04;101421.50;;;4.82;47.62
63285;BME280;49409;55.708;37.522;2023-01-24T06:06:29;101421.69;;;4.77;47.38
63285;BME280;49409;55.708;37.522;2023-01-24T06:09:02;101420.09;;;4.76;47.81
63285;BME280;49409;55.708;37.522;2023-01-24T06:11:28;101419.13;;;4.72;47.22
63285;BME280;49409;55.708;37.522;2023-01-24T06:13:54;101417.69;;;4.66;47.09
63285;BME280;49409;55.708;37.522;2023-01-24T06:16:20;101428.13;;;4.64;47.55
63285;BME280;49409;55.708;37.522;2023-01-24T06:18:46;101427.19;;;4.60;47.77
63285;BME280;49409;55.708;37.522;2023-01-24T06:23:37;101429.59;;;4.61;47.81
63285;BME280;49409;55.708;37.522;2023-01-24T06:26:03;101425.88;;;4.66;47.57
63285;BME280;49409;55.708;37.522;2023-01-24T06:28:28;101431.31;;;4.66;47.57
63285;BME280;49409;55.708;37.522;2023-01-24T06:30:58;101421.25;;;4.66;47.92
63285;BME280;49409;55.708;37.522;2023-01-24T06:33:28;101421.38;;;4.70;47.97
63285;BME280;49409;55.708;37.522;2023-01-24T06:36:14;101419.94;;;4.72;47.65
63285;BME280;49409;55.708;37.522;2023-01-24T06:38:44;101410.28;;;4.75;47.84
63285;BME280;49409;55.708;37.522;2023-01-24T06:41:13;101406.47;;;4.76;47.94
63285;BME280;49409;55.708;37.522;2023-01-24T06:43:39;101407.56;;;4.75;47.86
63285;BME280;49409;55.708;37.522;2023-01-24T06:46:04;101414.81;;;4.71;47.66
63285;BME280;49409;55.708;37.522;2023-01-24T06:48:30;101412.56;;;4.73;47.21
63285;BME280;49409;55.708;37.522;2023-01-24T06:50:55;101419.63;;;4.74;48.10
63285;BME280;49409;55.708;37.522;2023-01-24T06:53:21;101411.91;;;4.76;47.62
63285;BME280;49409;55.708;37.522;2023-01-24T06:55:46;101414.91;;;4.83;47.07
63285;BME280;49409;55.708;37.522;2023-01-24T06:58:12;101402.38;;;4.91;47.98
63285;BME280;49409;55.708;37.522;2023-01-24T07:00:38;101408.13;;;4.98;47.65
63285;BME280;49409;55.708;37.522;2023-01-24T07:03:04;101411.09;;;5.05;47.60
63285;BME280;49409;55.708;37.522;2023-01-24T07:05:33;101414.59;;;5.14;47.76
63285;BME280;49409;55.708;37.522;2023-01-24T07:08:00;101417.28;;;5.23;47.21
63285;BME280;49409;55.708;37.522;2023-01-24T07:10:25;101414.81;;;5.30;47.69
63285;BME280;49409;55.708;37.522;2023-01-24T07:12:51;101428.75;;;5.38;47.26
63285;BME280;49409;55.708;37.522;2023-01-24T07:15:16;101424.38;;;5.45;47.50
63285;BME280;49409;55.708;37.522;2023-01-24T07:17:42;101425.47;;;5.53;46.96
63285;BME280;49409;55.708;37.522;2023-01-24T07:20:07;101429.22;;;5.61;46.97
63285;BME280;49409;55.708;37.522;2023-01-24T07:22:35;101427.56;;;5.68;47.29
63285;BME280;49409;55.708;37.522;2023-01-24T07:25:01;101419.19;;;5.73;47.25
63285;BME280;49409;55.708;37.522;2023-01-24T07:27:27;101431.69;;;5.74;46.66
63285;BME280;49409;55.708;37.522;2023-01-24T07:29:52;101431.03;;;5.78;46.61
63285;BME280;49409;55.708;37.522;2023-01-24T07:32:18;101421.72;;;5.79;46.58
63285;BME280;49409;55.708;37.522;2023-01-24T07:34:43;101416.94;;;5.75;46.65
63285;BME280;49409;55.708;37.522;2023-01-24T07:37:09;101419.84;;;5.70;47.06
63285;BME280;49409;55.708;37.522;2023-01-24T07:39:34;101426.78;;;5.68;47.03
63285;BME280;49409;55.708;37.522;2023-01-24T07:41:59;101424.38;;;5.66;47.10
63285;BME280;49409;55.708;37.522;2023-01-24T07:44:25;101429.84;;;5.66;46.96
63285;BME280;49409;55.708;37.522;2023-01-24T07:46:50;101424.50;;;5.70;46.90
63285;BME280;49409;55.708;37.522;2023-01-24T07:49:15;101430.66;;;5.67;46.80
63285;BME280;49409;55.708;37.522;2023-01-24T07:51:42;101429.03;;;5.66;47.23
63285;BME280;49409;55.708;37.522;2023-01-24T07:54:08;101423.72;;;5.69;46.85
63285;BME280;49409;55.708;37.522;2023-01-24T07:56:33;101430.78;;;5.70;46.79
63285;BME280;49409;55.708;37.522;2023-01-24T07:58:59;101428.50;;;5.72;47.24
63285;BME280;49409;55.708;37.522;2023-01-24T08:01:24;101430.13;;;5.73;47.02
63285;BME280;49409;55.708;37.522;2023-01-24T08:03:50;101431.50;;;5.80;46.57
63285;BME280;49409;55.708;37.522;2023-01-24T08:06:15;101424.94;;;5.81;46.64
63285;BME280;49409;55.708;37.522;2023-01-24T08:08:41;101429.25;;;5.82;46.32
63285;BME280;49409;55.708;37.522;2023-01-24T08:11:06;101429.72;;;5.84;46.89
63285;BME280;49409;55.708;37.522;2023-01-24T08:13:31;101424.09;;;5.80;46.40
63285;BME280;49409;55.708;37.522;2023-01-24T08:15:58;101424.09;;;5.80;46.93
63285;BME280;49409;55.708;37.522;2023-01-24T08:18:24;101422.78;;;5.86;46.53
63285;BME280;49409;55.708;37.522;2023-01-24T08:20:49;101416.00;;;5.92;46.55
63285;BME280;49409;55.708;37.522;2023-01-24T08:23:14;101416.94;;;5.97;46.73
63285;BME280;49409;55.708;37.522;2023-01-24T08:25:40;101421.41;;;6.01;46.52
63285;BME280;49409;55.708;37.522;2023-01-24T08:28:05;101408.66;;;6.05;46.64
63285;BME280;49409;55.708;37.522;2023-01-24T08:30:30;101405.28;;;6.08;46.46
63285;BME280;49409;55.708;37.522;2023-01-24T08:33:00;101404.81;;;6.06;46.67
63285;BME280;49409;55.708;37.522;2023-01-24T08:35:26;101413.47;;;6.08;46.78
63285;BME280;49409;55.708;37.522;2023-01-24T08:37:51;101405.03;;;6.13;46.56
63285;BME280;49409;55.708;37.522;2023-01-24T08:40:16;101400.72;;;6.12;46.65
63285;BME280;49409;55.708;37.522;2023-01-24T08:42:42;101386.25;;;6.12;46.75
63285;BME280;49409;55.708;37.522;2023-01-24T08:45:07;101383.88;;;6.10;46.79
63285;BME280;49409;55.708;37.522;2023-01-24T08:47:33;101390.59;;;6.13;46.44
63285;BME280;49409;55.708;37.522;2023-01-24T08:49:58;101383.16;;;6.13;46.98
63285;BME280;49409;55.708;37.522;2023-01-24T08:52:24;101387.16;;;6.16;46.53
63285;BME280;49409;55.708;37.522;2023-01-24T08:54:49;101379.56;;;6.22;46.66
63285;BME280;49409;55.708;37.522;2023-01-24T08:57:14;101376.63;;;6.27;46.65
63285;BME280;49409;55.708;37.522;2023-01-24T08:59:40;101372.53;;;6.33;46.34
63285;BME280;49409;55.708;37.522;2023-01-24T09:02:06;101371.16;;;6.39;46.42
63285;BME280;49409;55.708;37.522;2023-01-24T09:04:31;101365.50;;;6.44;46.48
63285;BME280;49409;55.708;37.522;2023-01-24T09:06:56;101360.59;;;6.50;46.37
63285;BME280;49409;55.708;37.522;2023-01-24T09:09:22;101363.44;;;6.53;46.08
63285;BME280;49409;55.708;37.522;2023-01-24T09:15:05;101360.03;;;6.57;46.00
63285;BME280;49409;55.708;37.522;2023-01-24T09:17:32;101355.00;;;6.59;46.33
63285;BME280;49409;55.708;37.522;2023-01-24T09:19:57;101356.63;;;6.60;46.14
63285;BME280;49409;55.708;37.522;2023-01-24T09:22:23;101355.94;;;6.63;45.95
63285;BME280;49409;55.708;37.522;2023-01-24T09:24:48;101355.94;;;6.63;46.18
63285;BME280;49409;55.708;37.522;2023-01-24T09:27:14;101353.66;;;6.65;46.42
63285;BME280;49409;55.708;37.522;2023-01-24T09:29:39;101350.69;;;6.70;45.86
63285;BME280;49409;55.708;37.522;2023-01-24T09:32:05;101343.28;;;6.70;46.03
63285;BME280;49409;55.708;37.522;2023-01-24T09:34:30;101342.50;;;6.70;45.78
63285;BME280;49409;55.708;37.522;2023-01-24T09:36:55;101349.09;;;6.69;45.73
63285;BME280;49409;55.708;37.522;2023-01-24T09:39:21;101353.66;;;6.65;46.14
63285;BME280;49409;55.708;37.522;2023-01-24T09:44:31;101346.81;;;6.59;45.88
63285;BME280;49409;55.708;37.522;2023-01-24T09:46:59;101357.28;;;6.57;46.15
63285;BME280;49409;55.708;37.522;2023-01-24T09:52:01;101342.94;;;6.60;45.92
63285;BME280;49409;55.708;37.522;2023-01-24T09:54:36;101341.13;;;6.64;45.87
63285;BME280;49409;55.708;37.522;2023-01-24T09:57:09;101342.69;;;6.65;46.11
63285;BME280;49409;55.708;37.522;2023-01-24T09:59:41;101338.03;;;6.65;45.75
63285;BME280;49409;55.708;37.522;2023-01-24T10:02:15;101325.63;;;6.68;45.64
63285;BME280;49409;55.708;37.522;2023-01-24T10:04:41;101331.09;;;6.68;45.60
63285;BME280;49409;55.708;37.522;2023-01-24T10:10:11;101324.69;;;6.76;45.68
63285;BME280;49409;55.708;37.522;2023-01-24T10:12:51;101320.81;;;6.77;45.73
63285;BME280;49409;55.708;37.522;2023-01-24T10:15:27;101319.34;;;6.80;45.82
63285;BME280;49409;55.708;37.522;2023-01-24T10:18:05;101316.03;;;6.74;45.66
63285;BME280;49409;55.708;37.522;2023-01-24T10:20:36;101315.59;;;6.72;45.55
63285;BME280;49409;55.708;37.522;2023-01-24T10:31:01;101297.34;;;6.64;45.91
63285;BME280;49409;55.708;37.522;2023-01-24T10:36:42;101281.63;;;6.61;45.98
63285;BME280;49409;55.708;37.522;2023-01-24T10:39:10;101278.44;;;6.59;45.95
63285;BME280;49409;55.708;37.522;2023-01-24T10:41:35;101277.75;;;6.62;46.20
63285;BME280;49409;55.708;37.522;2023-01-24T10:44:14;101277.50;;;6.67;45.95
63285;BME280;49409;55.708;37.522;2023-01-24T10:46:49;101264.06;;;6.74;45.74
63285;BME280;49409;55.708;37.522;2023-01-24T10:49:29;101266.53;;;6.79;45.83
63285;BME280;49409;55.708;37.522;2023-01-24T10:54:43;101255.81;;;6.86;45.61
63285;BME280;49409;55.708;37.522;2023-01-24T10:57:16;101258.91;;;6.85;45.40
63285;BME280;49409;55.708;37.522;2023-01-24T10:59:42;101256.72;;;6.90;45.39
63285;BME280;49409;55.708;37.522;2023-01-24T11:02:09;101242.81;;;6.95;45.18
63285;BME280;49409;55.708;37.522;2023-01-24T11:04:43;101239.50;;;6.90;45.67
63285;BME280;49409;55.708;37.522;2023-01-24T11:10:17;101239.19;;;6.91;45.77
63285;BME280;49409;55.708;37.522;2023-01-24T11:12:46;101238.47;;;6.94;45.71
63285;BME280;49409;55.708;37.522;2023-01-24T11:15:17;101227.19;;;6.96;45.42
63285;BME280;49409;55.708;37.522;2023-01-24T11:17:43;101224.22;;;7.01;45.63
63285;BME280;49409;55.708;37.522;2023-01-24T11:23:00;101219.25;;;7.07;45.41
63285;BME280;49409;55.708;37.522;2023-01-24T11:25:26;101225.44;;;7.04;45.34
63285;BME280;49409;55.708;37.522;2023-01-24T11:27:51;101219.06;;;7.00;45.14
63285;BME280;49409;55.708;37.522;2023-01-24T11:30:19;101214.28;;;6.97;45.23
63285;BME280;49409;55.708;37.522;2023-01-24T11:33:20;101213.84;;;6.94;45.26
63285;BME280;49409;55.708;37.522;2023-01-24T11:35:37;101203.50;;;6.88;45.15
63285;BME280;49409;55.708;37.522;2023-01-24T11:38:16;101208.97;;;6.88;45.36
63285;BME280;49409;55.708;37.522;2023-01-24T11:56:40;101194.22;;;6.92;44.92
63285;BME280;49409;55.708;37.522;2023-01-24T12:09:39;101172.09;;;6.98;45.40
63285;BME280;49409;55.708;37.522;2023-01-24T12:17:28;101174.94;;;7.01;45.31
63285;BME280;49409;55.708;37.522;2023-01-24T12:20:17;101178.13;;;7.03;45.09
63285;BME280;49409;55.708;37.522;2023-01-24T12:22:47;101160.09;;;7.02;45.14
63285;BME280;49409;55.708;37.522;2023-01-24T12:25:21;101174.50;;;6.99;45.20
63285;BME280;49409;55.708;37.522;2023-01-24T12:27:48;101171.66;;;6.95;45.09
63285;BME280;49409;55.708;37.522;2023-01-24T12:30:22;101170.75;;;6.91;45.15
63285;BME280;49409;55.708;37.522;2023-01-24T12:32:52;101168.81;;;6.92;45.50
63285;BME280;49409;55.708;37.522;2023-01-24T12:35:26;101170.75;;;6.91;45.14
63285;BME280;49409;55.708;37.522;2023-01-24T12:42:57;101150.91;;;6.94;45.35
63285;BME280;49409;55.708;37.522;2023-01-24T12:47:51;101148.16;;;6.94;45.23
63285;BME280;49409;55.708;37.522;2023-01-24T12:50:36;101151.25;;;6.93;45.42
63285;BME280;49409;55.708;37.522;2023-01-24T12:53:07;101149.56;;;6.88;45.21
63285;BME280;49409;55.708;37.522;2023-01-24T12:55:40;101141.69;;;6.87;45.24
63285;BME280;49409;55.708;37.522;2023-01-24T13:03:34;101143.53;;;6.83;45.07
63285;BME280;49409;55.708;37.522;2023-01-24T13:06:18;101146.88;;;6.76;45.40
63285;BME280;49409;55.708;37.522;2023-01-24T13:11:30;101140.25;;;6.77;45.51
63285;BME280;49409;55.708;37.522;2023-01-24T13:25:28;101132.13;;;6.52;45.56
63285;BME280;49409;55.708;37.522;2023-01-24T13:27:59;101136.88;;;6.55;45.87
63285;BME280;49409;55.708;37.522;2023-01-24T13:33:08;101130.31;;;6.44;45.73
63285;BME280;49409;55.708;37.522;2023-01-24T13:35:36;101145.34;;;6.50;45.85
63285;BME280;49409;55.708;37.522;2023-01-24T13:38:24;101129.41;;;6.40;45.63
63285;BME280;49409;55.708;37.522;2023-01-24T13:41:03;101132.38;;;6.35;45.85
63285;BME280;49409;55.708;37.522;2023-01-24T13:46:03;101128.53;;;6.36;45.74
63285;BME280;49409;55.708;37.522;2023-01-24T13:53:56;101123.50;;;6.38;45.90
63285;BME280;49409;55.708;37.522;2023-01-24T13:56:22;101118.72;;;6.35;45.79
63285;BME280;49409;55.708;37.522;2023-01-24T13:58:47;101117.47;;;6.32;46.22
63285;BME280;49409;55.708;37.522;2023-01-24T14:01:16;101115.97;;;6.35;45.86
63285;BME280;49409;55.708;37.522;2023-01-24T14:03:50;101102.75;;;6.37;45.58
63285;BME280;49409;55.708;37.522;2023-01-24T14:06:17;101105.25;;;6.42;46.08
63285;BME280;49409;55.708;37.522;2023-01-24T14:08:44;101104.56;;;6.45;45.62
63285;BME280;49409;55.708;37.522;2023-01-24T14:11:15;101105.44;;;6.49;45.83
63285;BME280;49409;55.708;37.522;2023-01-24T14:14:01;101105.13;;;6.51;45.90
63285;BME280;49409;55.708;37.522;2023-01-24T14:21:49;101099.09;;;6.45;45.76
63285;BME280;49409;55.708;37.522;2023-01-24T14:24:19;101090.53;;;6.47;45.89
63285;BME280;49409;55.708;37.522;2023-01-24T14:26:49;101089.03;;;6.49;45.91
63285;BME280;49409;55.708;37.522;2023-01-24T14:29:15;101082.56;;;6.42;45.83
63285;BME280;49409;55.708;37.522;2023-01-24T14:31:41;101081.78;;;6.41;45.90
63285;BME280;49409;55.708;37.522;2023-01-24T14:34:17;101092.53;;;6.34;46.31
63285;BME280;49409;55.708;37.522;2023-01-24T14:36:45;101097.53;;;6.32;46.08
63285;BME280;49409;55.708;37.522;2023-01-24T14:39:19;101094.09;;;6.35;45.76
63285;BME280;49409;55.708;37.522;2023-01-24T14:41:46;101072.22;;;6.35;45.78
63285;BME280;49409;55.708;37.522;2023-01-24T14:46:50;101080.66;;;6.30;45.86
63285;BME280;49409;55.708;37.522;2023-01-24T14:49:22;101069.19;;;6.24;46.37
63285;BME280;49409;55.708;37.522;2023-01-24T14:51:49;101060.63;;;6.26;46.07